This is the latest recevied weather packets stored in our database for station/object KA9CBS. If no packets are shown the sender has not sent any weather packets the latest 10 day(s).
| Time | Temp. | Humidity | Pressure | Rain* | Wind** | Luminosity | Snow |
|---|---|---|---|---|---|---|---|
| 1787945059 | 28.89° C | 52% | 1021.3 hPa | 0 mm | - | 703 W/m² | - |
| 1787944755 | 29.44° C | 52% | 1021.3 hPa | 0 mm | - | 692 W/m² | - |
| 1787944451 | 29.44° C | 53% | 1021.2 hPa | 0 mm | - | 682 W/m² | - |
| 1787944147 | 28.89° C | 58% | 1021.5 hPa | 0 mm | - | 724 W/m² | - |
| 1787943841 | 28.89° C | 56% | 1021.6 hPa | 0 mm | - | 215 W/m² | - |
| 1787943537 | 29.44° C | 54% | 1021.5 hPa | 0 mm | - | 724 W/m² | - |
| 1787943232 | 28.89° C | 55% | 1021.9 hPa | 0 mm | - | 675 W/m² | - |
| 1787942931 | 28.89° C | 60% | 1021.7 hPa | 0 mm | - | 709 W/m² | - |
| 1787942627 | 28.33° C | 61% | 1021.7 hPa | 0 mm | - | 175 W/m² | - |
| 1787942327 | 28.89° C | 59% | 1022 hPa | 0 mm | - | 735 W/m² | - |
| 1787942022 | 29.44° C | 51% | 1022.1 hPa | 0 mm | - | 757 W/m² | - |
| 1787941717 | 30° C | 50% | 1021.9 hPa | 0 mm | - | 766 W/m² | - |
| 1787941416 | 28.89° C | 56% | 1022 hPa | 0 mm | - | 682 W/m² | - |
| 1787941115 | 28.33° C | 57% | 1021.7 hPa | 0 mm | - | 681 W/m² | - |
| 1787940811 | 28.89° C | 58% | 1022 hPa | 0 mm | - | 751 W/m² | - |
| 1787940508 | 28.89° C | 56% | 1022 hPa | 0 mm | - | 704 W/m² | - |
| 1787940207 | 28.89° C | 56% | 1022.2 hPa | 0 mm | - | 693 W/m² | - |
| 1787939902 | 27.78° C | 58% | 1022.1 hPa | 0 mm | - | 568 W/m² | - |
| 1787939596 | 27.22° C | 59% | 1022.6 hPa | 0 mm | - | 172 W/m² | - |
| 1787939291 | 27.78° C | 61% | 1022.3 hPa | 0 mm | - | 180 W/m² | - |
| 1787938986 | 28.33° C | 60% | 1022.4 hPa | 0 mm | - | 200 W/m² | - |
| 1787938684 | 28.89° C | 57% | 1022.3 hPa | 0 mm | - | 812 W/m² | - |
| 1787938381 | 28.33° C | 58% | 1022.6 hPa | 0 mm | - | 775 W/m² | - |
| 1787938075 | 27.78° C | 58% | 1022.6 hPa | 0 mm | - | 734 W/m² | - |
| 1787937771 | 27.78° C | 58% | 1022.3 hPa | 0 mm | - | 726 W/m² | - |
* Rain latest hour (hover to see other rain measurements)
** Current wind speed in m/s (hover to see current wind gust speed)